sensor_id;sensor_type;location;lat;lon;timestamp;pressure;altitude;pressure_sealevel;temperature;humidity
10014;BME280;45684;48.358;10.746;2023-01-01T00:00:19;96609.44;;;8.42;nan
10014;BME280;45684;48.358;10.746;2023-01-01T00:02:48;96614.84;;;8.42;nan
10014;BME280;45684;48.358;10.746;2023-01-01T00:05:16;96618.41;;;8.37;nan
10014;BME280;45684;48.358;10.746;2023-01-01T00:07:44;96621.63;;;8.34;nan
10014;BME280;45684;48.358;10.746;2023-01-01T00:10:12;96617.59;;;8.37;nan
10014;BME280;45684;48.358;10.746;2023-01-01T00:12:55;96631.88;;;8.37;nan
10014;BME280;45684;48.358;10.746;2023-01-01T00:15:24;96635.72;;;8.31;nan
10014;BME280;45684;48.358;10.746;2023-01-01T00:17:54;96641.81;;;8.18;nan
10014;BME280;45684;48.358;10.746;2023-01-01T00:20:23;96637.22;;;8.18;nan
10014;BME280;45684;48.358;10.746;2023-01-01T00:22:55;96644.00;;;8.16;nan
10014;BME280;45684;48.358;10.746;2023-01-01T00:25:23;96641.00;;;8.17;nan
10014;BME280;45684;48.358;10.746;2023-01-01T00:27:51;96642.59;;;8.18;nan
10014;BME280;45684;48.358;10.746;2023-01-01T00:30:19;96635.00;;;8.21;nan
10014;BME280;45684;48.358;10.746;2023-01-01T00:32:47;96637.38;;;8.27;nan
10014;BME280;45684;48.358;10.746;2023-01-01T00:35:22;96640.88;;;8.28;nan
10014;BME280;45684;48.358;10.746;2023-01-01T00:37:50;96644.72;;;8.22;nan
10014;BME280;45684;48.358;10.746;2023-01-01T00:40:18;96646.47;;;8.12;nan
10014;BME280;45684;48.358;10.746;2023-01-01T00:42:46;96649.09;;;8.17;nan
10014;BME280;45684;48.358;10.746;2023-01-01T00:45:14;96653.38;;;8.18;nan
10014;BME280;45684;48.358;10.746;2023-01-01T00:47:47;96658.75;;;8.18;nan
10014;BME280;45684;48.358;10.746;2023-01-01T00:50:15;96664.78;;;8.10;nan
10014;BME280;45684;48.358;10.746;2023-01-01T00:52:44;96665.13;;;8.04;nan
10014;BME280;45684;48.358;10.746;2023-01-01T00:55:15;96649.28;;;8.02;nan
10014;BME280;45684;48.358;10.746;2023-01-01T00:57:42;96656.53;;;8.02;nan
10014;BME280;45684;48.358;10.746;2023-01-01T01:00:11;96653.03;;;8.01;nan
10014;BME280;45684;48.358;10.746;2023-01-01T01:02:40;96645.63;;;7.93;nan
10014;BME280;45684;48.358;10.746;2023-01-01T01:05:08;96652.06;;;7.92;nan
10014;BME280;45684;48.358;10.746;2023-01-01T01:07:37;96652.06;;;7.92;nan
10014;BME280;45684;48.358;10.746;2023-01-01T01:10:08;96655.34;;;7.89;nan
10014;BME280;45684;48.358;10.746;2023-01-01T01:12:37;96653.47;;;7.89;nan
10014;BME280;45684;48.358;10.746;2023-01-01T01:15:06;96651.56;;;7.90;nan
10014;BME280;45684;48.358;10.746;2023-01-01T01:17:34;96648.13;;;7.84;nan
10014;BME280;45684;48.358;10.746;2023-01-01T01:20:03;96646.53;;;7.83;nan
10014;BME280;45684;48.358;10.746;2023-01-01T01:22:31;96645.19;;;7.81;nan
10014;BME280;45684;48.358;10.746;2023-01-01T01:25:00;96650.59;;;7.81;nan
10014;BME280;45684;48.358;10.746;2023-01-01T01:27:29;96640.38;;;7.78;nan
10014;BME280;45684;48.358;10.746;2023-01-01T01:29:57;96632.03;;;7.79;nan
10014;BME280;45684;48.358;10.746;2023-01-01T01:32:25;96637.94;;;7.81;nan
10014;BME280;45684;48.358;10.746;2023-01-01T01:34:53;96632.59;;;7.76;nan
10014;BME280;45684;48.358;10.746;2023-01-01T01:37:21;96633.69;;;7.75;nan
10014;BME280;45684;48.358;10.746;2023-01-01T01:39:48;96636.63;;;7.79;nan
10014;BME280;45684;48.358;10.746;2023-01-01T01:42:21;96636.03;;;7.82;nan
10014;BME280;45684;48.358;10.746;2023-01-01T01:44:53;96643.31;;;7.81;nan
10014;BME280;45684;48.358;10.746;2023-01-01T01:47:26;96638.91;;;7.66;nan
10014;BME280;45684;48.358;10.746;2023-01-01T01:49:58;96632.47;;;7.62;nan
10014;BME280;45684;48.358;10.746;2023-01-01T01:52:30;96633.03;;;7.59;nan
10014;BME280;45684;48.358;10.746;2023-01-01T01:55:00;96626.00;;;7.63;nan
10014;BME280;45684;48.358;10.746;2023-01-01T01:57:30;96638.66;;;7.63;nan
10014;BME280;45684;48.358;10.746;2023-01-01T02:00:00;96634.88;;;7.64;nan
10014;BME280;45684;48.358;10.746;2023-01-01T02:02:39;96630.09;;;7.61;nan
10014;BME280;45684;48.358;10.746;2023-01-01T02:05:09;96635.72;;;7.59;nan
10014;BME280;45684;48.358;10.746;2023-01-01T02:07:38;96647.09;;;7.56;nan
10014;BME280;45684;48.358;10.746;2023-01-01T02:10:07;96639.56;;;7.53;nan
10014;BME280;45684;48.358;10.746;2023-01-01T02:12:34;96644.53;;;7.41;nan
10014;BME280;45684;48.358;10.746;2023-01-01T02:15:05;96646.16;;;7.42;nan
10014;BME280;45684;48.358;10.746;2023-01-01T02:17:38;96639.13;;;7.41;nan
10014;BME280;45684;48.358;10.746;2023-01-01T02:20:28;96635.38;;;7.42;nan
10014;BME280;45684;48.358;10.746;2023-01-01T02:23:13;96634.28;;;7.43;nan
10014;BME280;45684;48.358;10.746;2023-01-01T02:25:59;96638.88;;;7.43;nan
10014;BME280;45684;48.358;10.746;2023-01-01T02:28:48;96635.16;;;7.38;nan
10014;BME280;45684;48.358;10.746;2023-01-01T02:31:23;96634.09;;;7.34;nan
10014;BME280;45684;48.358;10.746;2023-01-01T02:33:57;96633.66;;;7.22;nan
10014;BME280;45684;48.358;10.746;2023-01-01T02:36:29;96629.09;;;7.23;nan
10014;BME280;45684;48.358;10.746;2023-01-01T02:39:01;96635.50;;;7.27;nan
10014;BME280;45684;48.358;10.746;2023-01-01T02:41:33;96631.16;;;7.31;nan
10014;BME280;45684;48.358;10.746;2023-01-01T02:44:04;96629.88;;;7.28;nan
10014;BME280;45684;48.358;10.746;2023-01-01T02:46:34;96625.56;;;7.27;nan
10014;BME280;45684;48.358;10.746;2023-01-01T02:49:03;96623.59;;;7.09;nan
10014;BME280;45684;48.358;10.746;2023-01-01T02:51:43;96635.41;;;7.08;nan
10014;BME280;45684;48.358;10.746;2023-01-01T02:54:21;96631.41;;;7.05;nan
10014;BME280;45684;48.358;10.746;2023-01-01T02:56:55;96637.88;;;7.04;nan
10014;BME280;45684;48.358;10.746;2023-01-01T02:59:32;96645.44;;;6.97;nan
10014;BME280;45684;48.358;10.746;2023-01-01T03:02:24;96651.16;;;6.90;nan
10014;BME280;45684;48.358;10.746;2023-01-01T03:05:02;96640.06;;;6.97;nan
10014;BME280;45684;48.358;10.746;2023-01-01T03:07:39;96644.84;;;7.05;nan
10014;BME280;45684;48.358;10.746;2023-01-01T03:10:12;96650.75;;;7.07;nan
10014;BME280;45684;48.358;10.746;2023-01-01T03:12:46;96648.91;;;7.03;nan
10014;BME280;45684;48.358;10.746;2023-01-01T03:15:24;96652.91;;;7.05;nan
10014;BME280;45684;48.358;10.746;2023-01-01T03:17:58;96647.78;;;7.09;nan
10014;BME280;45684;48.358;10.746;2023-01-01T03:20:32;96644.94;;;6.95;nan
10014;BME280;45684;48.358;10.746;2023-01-01T03:23:02;96634.75;;;6.92;nan
10014;BME280;45684;48.358;10.746;2023-01-01T03:25:35;96639.53;;;7.00;nan
10014;BME280;45684;48.358;10.746;2023-01-01T03:28:09;96633.34;;;7.00;nan
10014;BME280;45684;48.358;10.746;2023-01-01T03:30:41;96626.34;;;6.99;nan
10014;BME280;45684;48.358;10.746;2023-01-01T03:33:16;96640.44;;;6.85;nan
10014;BME280;45684;48.358;10.746;2023-01-01T03:35:47;96640.41;;;6.90;nan
10014;BME280;45684;48.358;10.746;2023-01-01T03:38:20;96638.47;;;6.96;nan
10014;BME280;45684;48.358;10.746;2023-01-01T03:40:51;96638.78;;;6.89;nan
10014;BME280;45684;48.358;10.746;2023-01-01T03:43:35;96652.00;;;6.86;nan
10014;BME280;45684;48.358;10.746;2023-01-01T03:46:08;96646.34;;;6.87;nan
10014;BME280;45684;48.358;10.746;2023-01-01T03:48:37;96645.19;;;6.94;nan
10014;BME280;45684;48.358;10.746;2023-01-01T03:51:35;96648.66;;;6.99;nan
10014;BME280;45684;48.358;10.746;2023-01-01T03:54:13;96644.09;;;7.00;nan
10014;BME280;45684;48.358;10.746;2023-01-01T03:56:45;96652.91;;;7.05;nan
10014;BME280;45684;48.358;10.746;2023-01-01T03:59:18;96661.03;;;7.00;nan
10014;BME280;45684;48.358;10.746;2023-01-01T04:01:51;96650.56;;;6.94;nan
10014;BME280;45684;48.358;10.746;2023-01-01T04:04:21;96651.16;;;6.90;nan
10014;BME280;45684;48.358;10.746;2023-01-01T04:06:50;96650.66;;;6.83;nan
10014;BME280;45684;48.358;10.746;2023-01-01T04:09:23;96642.88;;;6.82;nan
10014;BME280;45684;48.358;10.746;2023-01-01T04:11:52;96633.19;;;6.86;nan
10014;BME280;45684;48.358;10.746;2023-01-01T04:14:31;96642.72;;;7.02;nan
10014;BME280;45684;48.358;10.746;2023-01-01T04:17:02;96652.44;;;7.27;nan
10014;BME280;45684;48.358;10.746;2023-01-01T04:19:31;96641.22;;;7.49;nan
10014;BME280;45684;48.358;10.746;2023-01-01T04:21:59;96648.91;;;7.61;nan
10014;BME280;45684;48.358;10.746;2023-01-01T04:24:27;96645.25;;;7.76;nan
10014;BME280;45684;48.358;10.746;2023-01-01T04:26:55;96652.84;;;7.98;nan
10014;BME280;45684;48.358;10.746;2023-01-01T04:29:23;96646.53;;;8.07;nan
10014;BME280;45684;48.358;10.746;2023-01-01T04:31:51;96652.88;;;8.16;nan
10014;BME280;45684;48.358;10.746;2023-01-01T04:34:20;96651.94;;;8.26;nan
10014;BME280;45684;48.358;10.746;2023-01-01T04:36:48;96652.63;;;8.37;nan
10014;BME280;45684;48.358;10.746;2023-01-01T04:39:16;96653.38;;;8.42;nan
10014;BME280;45684;48.358;10.746;2023-01-01T04:41:45;96654.41;;;8.47;nan
10014;BME280;45684;48.358;10.746;2023-01-01T04:44:13;96664.06;;;8.48;nan
10014;BME280;45684;48.358;10.746;2023-01-01T04:46:41;96658.59;;;8.53;nan
10014;BME280;45684;48.358;10.746;2023-01-01T04:49:09;96664.53;;;8.55;nan
10014;BME280;45684;48.358;10.746;2023-01-01T04:51:38;96662.09;;;8.53;nan
10014;BME280;45684;48.358;10.746;2023-01-01T04:54:06;96654.03;;;8.53;nan
10014;BME280;45684;48.358;10.746;2023-01-01T04:56:34;96672.63;;;8.55;nan
10014;BME280;45684;48.358;10.746;2023-01-01T04:59:02;96662.41;;;8.52;nan
10014;BME280;45684;48.358;10.746;2023-01-01T05:01:30;96661.03;;;8.54;nan
10014;BME280;45684;48.358;10.746;2023-01-01T05:03:59;96662.63;;;8.55;nan
10014;BME280;45684;48.358;10.746;2023-01-01T05:06:27;96669.06;;;8.59;nan
10014;BME280;45684;48.358;10.746;2023-01-01T05:08:57;96671.09;;;8.67;nan
10014;BME280;45684;48.358;10.746;2023-01-01T05:11:28;96668.19;;;8.83;nan
10014;BME280;45684;48.358;10.746;2023-01-01T05:13:58;96669.41;;;8.90;nan
10014;BME280;45684;48.358;10.746;2023-01-01T05:16:27;96676.03;;;8.98;nan
10014;BME280;45684;48.358;10.746;2023-01-01T05:18:56;96683.25;;;9.03;nan
10014;BME280;45684;48.358;10.746;2023-01-01T05:21:26;96673.78;;;9.05;nan
10014;BME280;45684;48.358;10.746;2023-01-01T05:23:56;96685.06;;;9.07;nan
10014;BME280;45684;48.358;10.746;2023-01-01T05:26:27;96681.06;;;9.05;nan
10014;BME280;45684;48.358;10.746;2023-01-01T05:28:56;96692.44;;;9.02;nan
10014;BME280;45684;48.358;10.746;2023-01-01T05:31:26;96684.34;;;9.02;nan
10014;BME280;45684;48.358;10.746;2023-01-01T05:33:55;96691.41;;;8.98;nan
10014;BME280;45684;48.358;10.746;2023-01-01T05:36:25;96701.19;;;8.93;nan
10014;BME280;45684;48.358;10.746;2023-01-01T05:38:53;96701.03;;;8.85;nan
10014;BME280;45684;48.358;10.746;2023-01-01T05:41:22;96694.69;;;8.76;nan
10014;BME280;45684;48.358;10.746;2023-01-01T05:43:52;96701.81;;;8.66;nan
10014;BME280;45684;48.358;10.746;2023-01-01T05:46:21;96701.91;;;8.61;nan
10014;BME280;45684;48.358;10.746;2023-01-01T05:48:50;96709.31;;;8.51;nan
10014;BME280;45684;48.358;10.746;2023-01-01T05:51:19;96706.81;;;8.35;nan
10014;BME280;45684;48.358;10.746;2023-01-01T05:53:47;96715.03;;;8.20;nan
10014;BME280;45684;48.358;10.746;2023-01-01T05:56:16;96713.56;;;8.09;nan
10014;BME280;45684;48.358;10.746;2023-01-01T05:58:45;96723.06;;;8.01;nan
10014;BME280;45684;48.358;10.746;2023-01-01T06:01:16;96722.59;;;7.94;nan
10014;BME280;45684;48.358;10.746;2023-01-01T06:03:45;96727.31;;;7.78;nan
10014;BME280;45684;48.358;10.746;2023-01-01T06:06:16;96730.91;;;7.68;nan
10014;BME280;45684;48.358;10.746;2023-01-01T06:08:48;96719.94;;;7.65;nan
10014;BME280;45684;48.358;10.746;2023-01-01T06:11:16;96715.88;;;7.67;nan
10014;BME280;45684;48.358;10.746;2023-01-01T06:13:44;96726.88;;;7.71;nan
10014;BME280;45684;48.358;10.746;2023-01-01T06:16:12;96722.78;;;7.74;nan
10014;BME280;45684;48.358;10.746;2023-01-01T06:18:42;96723.84;;;7.78;nan
10014;BME280;45684;48.358;10.746;2023-01-01T06:21:12;96730.22;;;7.87;nan
10014;BME280;45684;48.358;10.746;2023-01-01T06:23:40;96734.97;;;7.95;nan
10014;BME280;45684;48.358;10.746;2023-01-01T06:26:10;96730.88;;;8.03;nan
10014;BME280;45684;48.358;10.746;2023-01-01T06:28:38;96742.38;;;8.08;nan
10014;BME280;45684;48.358;10.746;2023-01-01T06:31:08;96730.88;;;8.27;nan
10014;BME280;45684;48.358;10.746;2023-01-01T06:33:37;96732.38;;;8.38;nan
10014;BME280;45684;48.358;10.746;2023-01-01T06:36:09;96738.75;;;8.47;nan
10014;BME280;45684;48.358;10.746;2023-01-01T06:38:40;96741.31;;;8.57;nan
10014;BME280;45684;48.358;10.746;2023-01-01T06:41:11;96746.59;;;8.67;nan
10014;BME280;45684;48.358;10.746;2023-01-01T06:43:39;96752.41;;;8.75;nan
10014;BME280;45684;48.358;10.746;2023-01-01T06:46:13;96765.09;;;8.74;nan
10014;BME280;45684;48.358;10.746;2023-01-01T06:48:42;96759.78;;;8.69;nan
10014;BME280;45684;48.358;10.746;2023-01-01T06:51:12;96758.19;;;8.68;nan
10014;BME280;45684;48.358;10.746;2023-01-01T06:53:41;96754.16;;;8.65;nan
10014;BME280;45684;48.358;10.746;2023-01-01T06:56:09;96757.94;;;8.64;nan
10014;BME280;45684;48.358;10.746;2023-01-01T06:58:38;96763.22;;;8.51;nan
10014;BME280;45684;48.358;10.746;2023-01-01T07:01:08;96764.59;;;8.48;nan
10014;BME280;45684;48.358;10.746;2023-01-01T07:03:37;96765.69;;;8.47;nan
10014;BME280;45684;48.358;10.746;2023-01-01T07:06:05;96772.03;;;8.32;nan
10014;BME280;45684;48.358;10.746;2023-01-01T07:08:35;96763.47;;;8.25;nan
10014;BME280;45684;48.358;10.746;2023-01-01T07:11:04;96778.38;;;8.17;nan
10014;BME280;45684;48.358;10.746;2023-01-01T07:13:32;96779.56;;;8.06;nan
10014;BME280;45684;48.358;10.746;2023-01-01T07:16:01;96773.16;;;8.02;nan
10014;BME280;45684;48.358;10.746;2023-01-01T07:18:35;96787.19;;;7.99;nan
10014;BME280;45684;48.358;10.746;2023-01-01T07:21:05;96790.19;;;7.98;nan
10014;BME280;45684;48.358;10.746;2023-01-01T07:23:35;96788.34;;;7.93;nan
10014;BME280;45684;48.358;10.746;2023-01-01T07:26:03;96792.13;;;7.87;nan
10014;BME280;45684;48.358;10.746;2023-01-01T07:28:31;96798.66;;;7.81;nan
10014;BME280;45684;48.358;10.746;2023-01-01T07:30:59;96808.34;;;7.82;nan
10014;BME280;45684;48.358;10.746;2023-01-01T07:33:27;96810.22;;;7.81;nan
10014;BME280;45684;48.358;10.746;2023-01-01T07:35:54;96801.59;;;7.84;nan
10014;BME280;45684;48.358;10.746;2023-01-01T07:38:22;96810.94;;;7.92;nan
10014;BME280;45684;48.358;10.746;2023-01-01T07:40:51;96811.75;;;7.92;nan
10014;BME280;45684;48.358;10.746;2023-01-01T07:43:20;96814.63;;;8.01;nan
10014;BME280;45684;48.358;10.746;2023-01-01T07:45:48;96812.97;;;8.05;nan
10014;BME280;45684;48.358;10.746;2023-01-01T07:48:16;96818.09;;;8.07;nan
10014;BME280;45684;48.358;10.746;2023-01-01T07:50:44;96823.69;;;8.10;nan
10014;BME280;45684;48.358;10.746;2023-01-01T07:53:11;96826.34;;;8.15;nan
10014;BME280;45684;48.358;10.746;2023-01-01T07:55:39;96827.69;;;8.18;nan
10014;BME280;45684;48.358;10.746;2023-01-01T07:58:09;96828.78;;;8.17;nan
10014;BME280;45684;48.358;10.746;2023-01-01T08:00:38;96827.63;;;8.23;nan
10014;BME280;45684;48.358;10.746;2023-01-01T08:03:06;96831.06;;;8.29;nan
10014;BME280;45684;48.358;10.746;2023-01-01T08:05:36;96839.09;;;8.34;nan
10014;BME280;45684;48.358;10.746;2023-01-01T08:08:04;96835.59;;;8.38;nan
10014;BME280;45684;48.358;10.746;2023-01-01T08:10:32;96846.38;;;8.38;nan
10014;BME280;45684;48.358;10.746;2023-01-01T08:13:00;96842.59;;;8.39;nan
10014;BME280;45684;48.358;10.746;2023-01-01T08:15:30;96848.78;;;8.40;nan
10014;BME280;45684;48.358;10.746;2023-01-01T08:17:58;96846.59;;;8.42;nan
10014;BME280;45684;48.358;10.746;2023-01-01T08:20:28;96851.13;;;8.47;nan
10014;BME280;45684;48.358;10.746;2023-01-01T08:22:56;96851.88;;;8.52;nan
10014;BME280;45684;48.358;10.746;2023-01-01T08:25:30;96855.06;;;8.59;nan
10014;BME280;45684;48.358;10.746;2023-01-01T08:27:58;96846.84;;;8.69;nan
10014;BME280;45684;48.358;10.746;2023-01-01T08:30:25;96852.13;;;8.80;nan
10014;BME280;45684;48.358;10.746;2023-01-01T08:32:55;96851.78;;;8.86;nan
10014;BME280;45684;48.358;10.746;2023-01-01T08:35:23;96852.53;;;8.92;nan
10014;BME280;45684;48.358;10.746;2023-01-01T08:37:50;96846.50;;;9.00;nan
10014;BME280;45684;48.358;10.746;2023-01-01T08:40:19;96847.75;;;9.08;nan
10014;BME280;45684;48.358;10.746;2023-01-01T08:42:46;96852.19;;;9.17;nan
10014;BME280;45684;48.358;10.746;2023-01-01T08:45:14;96852.06;;;9.28;nan
10014;BME280;45684;48.358;10.746;2023-01-01T08:47:42;96856.00;;;9.35;nan
10014;BME280;45684;48.358;10.746;2023-01-01T08:50:11;96847.56;;;9.42;nan
10014;BME280;45684;48.358;10.746;2023-01-01T08:52:39;96858.00;;;9.49;nan
10014;BME280;45684;48.358;10.746;2023-01-01T08:55:08;96855.44;;;9.57;nan
10014;BME280;45684;48.358;10.746;2023-01-01T08:57:36;96860.91;;;9.71;nan
10014;BME280;45684;48.358;10.746;2023-01-01T09:00:05;96853.94;;;9.84;nan
10014;BME280;45684;48.358;10.746;2023-01-01T09:02:34;96865.81;;;10.02;nan
10014;BME280;45684;48.358;10.746;2023-01-01T09:05:03;96855.06;;;10.15;nan
10014;BME280;45684;48.358;10.746;2023-01-01T09:07:32;96843.41;;;10.34;nan
10014;BME280;45684;48.358;10.746;2023-01-01T09:10:00;96844.34;;;10.43;nan
10014;BME280;45684;48.358;10.746;2023-01-01T09:12:28;96842.44;;;10.57;nan
10014;BME280;45684;48.358;10.746;2023-01-01T09:14:56;96849.78;;;10.70;nan
10014;BME280;45684;48.358;10.746;2023-01-01T09:17:24;96849.00;;;10.84;nan
10014;BME280;45684;48.358;10.746;2023-01-01T09:19:51;96848.19;;;10.97;nan
10014;BME280;45684;48.358;10.746;2023-01-01T09:22:19;96843.78;;;11.15;nan
10014;BME280;45684;48.358;10.746;2023-01-01T09:24:49;96846.81;;;11.36;nan
10014;BME280;45684;48.358;10.746;2023-01-01T09:27:16;96847.28;;;11.52;nan
10014;BME280;45684;48.358;10.746;2023-01-01T09:29:44;96851.06;;;11.64;nan
10014;BME280;45684;48.358;10.746;2023-01-01T09:32:12;96850.22;;;11.78;nan
10014;BME280;45684;48.358;10.746;2023-01-01T09:34:40;96851.00;;;11.92;nan
10014;BME280;45684;48.358;10.746;2023-01-01T09:37:12;96852.38;;;12.03;nan
10014;BME280;45684;48.358;10.746;2023-01-01T09:39:40;96854.50;;;12.15;nan
10014;BME280;45684;48.358;10.746;2023-01-01T09:42:24;96865.91;;;12.25;nan
10014;BME280;45684;48.358;10.746;2023-01-01T09:45:13;96862.63;;;12.37;nan
10014;BME280;45684;48.358;10.746;2023-01-01T09:47:45;96861.13;;;12.54;nan
10014;BME280;45684;48.358;10.746;2023-01-01T09:50:20;96869.81;;;12.64;nan
10014;BME280;45684;48.358;10.746;2023-01-01T09:52:51;96871.59;;;12.69;nan
10014;BME280;45684;48.358;10.746;2023-01-01T09:55:25;96874.44;;;12.72;nan
10014;BME280;45684;48.358;10.746;2023-01-01T09:57:56;96869.88;;;12.82;nan
10014;BME280;45684;48.358;10.746;2023-01-01T10:00:24;96871.34;;;12.88;nan
10014;BME280;45684;48.358;10.746;2023-01-01T10:03:03;96864.66;;;12.94;nan
10014;BME280;45684;48.358;10.746;2023-01-01T10:05:42;96866.75;;;12.97;nan
10014;BME280;45684;48.358;10.746;2023-01-01T10:08:20;96860.19;;;12.98;nan
10014;BME280;45684;48.358;10.746;2023-01-01T10:10:57;96857.34;;;13.03;nan
10014;BME280;45684;48.358;10.746;2023-01-01T10:13:33;96853.34;;;13.09;nan
10014;BME280;45684;48.358;10.746;2023-01-01T10:16:10;96851.63;;;13.13;nan
10014;BME280;45684;48.358;10.746;2023-01-01T10:18:45;96852.75;;;13.21;nan
10014;BME280;45684;48.358;10.746;2023-01-01T10:21:16;96851.19;;;13.28;nan
10014;BME280;45684;48.358;10.746;2023-01-01T10:23:49;96843.38;;;13.36;nan
10014;BME280;45684;48.358;10.746;2023-01-01T10:26:20;96840.19;;;13.42;nan
10014;BME280;45684;48.358;10.746;2023-01-01T10:28:56;96840.53;;;13.49;nan
10014;BME280;45684;48.358;10.746;2023-01-01T10:31:30;96831.75;;;13.52;nan
10014;BME280;45684;48.358;10.746;2023-01-01T10:34:05;96822.47;;;13.53;nan
10014;BME280;45684;48.358;10.746;2023-01-01T10:36:35;96836.69;;;13.59;nan
10014;BME280;45684;48.358;10.746;2023-01-01T10:39:03;96836.22;;;13.66;nan
10014;BME280;45684;48.358;10.746;2023-01-01T10:41:32;96841.34;;;13.76;nan
10014;BME280;45684;48.358;10.746;2023-01-01T10:44:01;96834.63;;;13.82;nan
10014;BME280;45684;48.358;10.746;2023-01-01T10:46:29;96841.81;;;13.87;nan
10014;BME280;45684;48.358;10.746;2023-01-01T10:49:06;96837.34;;;13.91;nan
10014;BME280;45684;48.358;10.746;2023-01-01T10:51:37;96833.34;;;13.97;nan
10014;BME280;45684;48.358;10.746;2023-01-01T10:54:27;96821.50;;;14.01;nan
10014;BME280;45684;48.358;10.746;2023-01-01T10:56:57;96821.31;;;14.07;nan
10014;BME280;45684;48.358;10.746;2023-01-01T10:59:35;96817.81;;;14.06;nan
10014;BME280;45684;48.358;10.746;2023-01-01T11:02:15;96818.44;;;14.12;nan
10014;BME280;45684;48.358;10.746;2023-01-01T11:04:44;96808.66;;;14.19;nan
10014;BME280;45684;48.358;10.746;2023-01-01T11:07:18;96808.66;;;14.28;nan
10014;BME280;45684;48.358;10.746;2023-01-01T11:09:48;96800.78;;;14.35;nan
10014;BME280;45684;48.358;10.746;2023-01-01T11:12:32;96794.38;;;14.40;nan
10014;BME280;45684;48.358;10.746;2023-01-01T11:15:29;96779.78;;;14.44;nan
10014;BME280;45684;48.358;10.746;2023-01-01T11:18:03;96785.41;;;14.48;nan
10014;BME280;45684;48.358;10.746;2023-01-01T11:20:32;96787.94;;;14.53;nan
10014;BME280;45684;48.358;10.746;2023-01-01T11:23:17;96795.94;;;14.58;nan
10014;BME280;45684;48.358;10.746;2023-01-01T11:26:00;96784.56;;;14.65;nan
10014;BME280;45684;48.358;10.746;2023-01-01T11:28:29;96787.06;;;14.78;nan
10014;BME280;45684;48.358;10.746;2023-01-01T11:31:11;96784.59;;;14.86;nan
10014;BME280;45684;48.358;10.746;2023-01-01T11:33:45;96774.00;;;14.93;nan
10014;BME280;45684;48.358;10.746;2023-01-01T11:36:22;96769.31;;;15.02;nan
10014;BME280;45684;48.358;10.746;2023-01-01T11:39:05;96763.66;;;15.07;nan
10014;BME280;45684;48.358;10.746;2023-01-01T11:41:42;96780.13;;;15.11;nan
10014;BME280;45684;48.358;10.746;2023-01-01T11:44:12;96773.22;;;15.13;nan
10014;BME280;45684;48.358;10.746;2023-01-01T11:46:51;96774.16;;;15.17;nan
10014;BME280;45684;48.358;10.746;2023-01-01T11:49:22;96769.50;;;15.18;nan
10014;BME280;45684;48.358;10.746;2023-01-01T11:51:52;96770.09;;;15.23;nan
10014;BME280;45684;48.358;10.746;2023-01-01T11:54:23;96766.06;;;15.29;nan
10014;BME280;45684;48.358;10.746;2023-01-01T11:56:53;96764.47;;;15.28;nan
10014;BME280;45684;48.358;10.746;2023-01-01T11:59:25;96771.66;;;15.33;nan
10014;BME280;45684;48.358;10.746;2023-01-01T12:01:57;96760.44;;;15.35;nan
10014;BME280;45684;48.358;10.746;2023-01-01T12:04:30;96762.03;;;15.36;nan
10014;BME280;45684;48.358;10.746;2023-01-01T12:07:04;96759.44;;;15.39;nan
10014;BME280;45684;48.358;10.746;2023-01-01T12:09:37;96755.22;;;15.42;nan
10014;BME280;45684;48.358;10.746;2023-01-01T12:12:14;96755.72;;;15.44;nan
10014;BME280;45684;48.358;10.746;2023-01-01T12:14:48;96760.16;;;15.48;nan
10014;BME280;45684;48.358;10.746;2023-01-01T12:17:23;96757.09;;;15.50;nan
10014;BME280;45684;48.358;10.746;2023-01-01T12:19:57;96755.31;;;15.54;nan
10014;BME280;45684;48.358;10.746;2023-01-01T12:22:26;96753.72;;;15.53;nan
10014;BME280;45684;48.358;10.746;2023-01-01T12:24:56;96744.41;;;15.54;nan
10014;BME280;45684;48.358;10.746;2023-01-01T12:27:39;96745.84;;;15.51;nan
10014;BME280;45684;48.358;10.746;2023-01-01T12:30:15;96746.31;;;15.53;nan
10014;BME280;45684;48.358;10.746;2023-01-01T12:33:12;96743.47;;;15.50;nan
10014;BME280;45684;48.358;10.746;2023-01-01T12:36:02;96738.66;;;15.47;nan
10014;BME280;45684;48.358;10.746;2023-01-01T12:41:36;96739.75;;;15.54;nan
10014;BME280;45684;48.358;10.746;2023-01-01T12:44:24;96726.09;;;15.54;nan
10014;BME280;45684;48.358;10.746;2023-01-01T12:47:00;96726.56;;;15.56;nan
10014;BME280;45684;48.358;10.746;2023-01-01T12:52:33;96731.69;;;15.58;nan
10014;BME280;45684;48.358;10.746;2023-01-01T12:55:27;96725.09;;;15.59;nan
10014;BME280;45684;48.358;10.746;2023-01-01T12:58:04;96728.44;;;15.65;nan
10014;BME280;45684;48.358;10.746;2023-01-01T13:00:36;96724.38;;;15.71;nan
10014;BME280;45684;48.358;10.746;2023-01-01T13:03:09;96722.78;;;15.70;nan
10014;BME280;45684;48.358;10.746;2023-01-01T13:05:44;96721.19;;;15.69;nan
10014;BME280;45684;48.358;10.746;2023-01-01T13:08:14;96722.78;;;15.70;nan
10014;BME280;45684;48.358;10.746;2023-01-01T13:10:44;96722.44;;;15.71;nan
10014;BME280;45684;48.358;10.746;2023-01-01T13:13:13;96711.09;;;15.69;nan
10014;BME280;45684;48.358;10.746;2023-01-01T13:15:49;96705.63;;;15.69;nan
10014;BME280;45684;48.358;10.746;2023-01-01T13:18:21;96718.47;;;15.69;nan
10014;BME280;45684;48.358;10.746;2023-01-01T13:20:57;96709.50;;;15.68;nan
10014;BME280;45684;48.358;10.746;2023-01-01T13:23:46;96719.91;;;15.66;nan
10014;BME280;45684;48.358;10.746;2023-01-01T13:26:40;96705.84;;;15.64;nan
10014;BME280;45684;48.358;10.746;2023-01-01T13:29:43;96701.81;;;15.62;nan
10014;BME280;45684;48.358;10.746;2023-01-01T13:32:14;96704.53;;;15.62;nan
10014;BME280;45684;48.358;10.746;2023-01-01T13:35:01;96700.22;;;15.61;nan
10014;BME280;45684;48.358;10.746;2023-01-01T13:37:46;96698.63;;;15.60;nan
10014;BME280;45684;48.358;10.746;2023-01-01T13:43:24;96706.03;;;15.59;nan
10014;BME280;45684;48.358;10.746;2023-01-01T13:45:52;96708.25;;;15.57;nan
10014;BME280;45684;48.358;10.746;2023-01-01T13:49:12;96699.63;;;15.55;nan
10014;BME280;45684;48.358;10.746;2023-01-01T13:52:09;96706.53;;;15.52;nan